Cottonton, Alabama
Current Conditions -  °F | °C
As of 1:58 PM on Thursday 18 Dec 2014 (Local Time) from KLSF Reporting Station
Few Clouds Few Clouds  
Wind Chill: 63°   Ceiling: Unl
Heat Index: 63°   Visibility: 10mi
Dew Point: 33°   Wind: 3mph
Humidity: 33%   Direction: 220°SW
Pressure: 30.1"   Gusts: NA
Location:  32.15°N, 85.07°W
Report Text: KLSF 181958Z AUTO 22003KT 10SM FEW100 17/01 A3010 RMK AO2 SLP196 T01720008
Loading
Personal Weather Stations






























Interactive Weather Map New forecast layout! Learn more

10-Day Weather Forecast

Advertisements
Track Severe Weather on mobile